TimeCST,TemperatureF,Dew PointF,Humidity,Sea Level PressureIn,VisibilityMPH,Wind Direction,Wind SpeedMPH,Gust SpeedMPH,PrecipitationIn,Events,Conditions,WindDirDegrees,DateUTC
12:54 AM,27.0,19.0,72,30.20,10.0,South,5.8,-,N/A,,Clear,190,2012-12-12 06:54:00
1:54 AM,27.0,19.0,72,30.20,10.0,South,5.8,-,N/A,,Clear,190,2012-12-12 07:54:00
2:54 AM,27.0,19.0,72,30.21,10.0,South,6.9,-,N/A,,Clear,190,2012-12-12 08:54:00
3:54 AM,27.0,19.0,72,30.21,10.0,South,6.9,-,N/A,,Clear,190,2012-12-12 09:54:00
4:54 AM,28.0,19.0,69,30.22,10.0,South,5.8,-,N/A,,Clear,180,2012-12-12 10:54:00
5:54 AM,27.0,19.0,72,30.24,10.0,South,6.9,-,N/A,,Clear,180,2012-12-12 11:54:00
6:54 AM,27.0,19.0,72,30.25,10.0,South,6.9,-,N/A,,Clear,180,2012-12-12 12:54:00
7:54 AM,28.9,19.0,67,30.27,10.0,South,6.9,-,N/A,,Clear,180,2012-12-12 13:54:00
8:54 AM,33.1,21.0,61,30.28,10.0,South,8.1,-,N/A,,Clear,180,2012-12-12 14:54:00
9:54 AM,37.0,23.0,57,30.29,10.0,SSW,12.7,-,N/A,,Clear,200,2012-12-12 15:54:00
10:54 AM,41.0,21.2,45,30.27,10.0,South,10.4,-,N/A,,Clear,190,2012-12-12 16:54:00
11:54 AM,43.0,24.1,47,30.27,10.0,South,12.7,-,N/A,,Clear,180,2012-12-12 17:54:00
12:54 PM,46.0,21.9,39,30.25,10.0,South,10.4,-,N/A,,Clear,180,2012-12-12 18:54:00
1:54 PM,48.0,21.9,36,30.22,10.0,South,12.7,-,N/A,,Clear,190,2012-12-12 19:54:00
2:54 PM,48.9,19.9,32,30.22,10.0,SSW,18.4,21.9,N/A,,Clear,200,2012-12-12 20:54:00
3:54 PM,46.9,19.9,34,30.22,10.0,South,9.2,-,N/A,,Clear,190,2012-12-12 21:54:00
4:54 PM,44.1,19.0,37,30.22,10.0,South,9.2,-,N/A,,Clear,170,2012-12-12 22:54:00
5:54 PM,42.1,18.0,38,30.23,10.0,South,8.1,-,N/A,,Clear,170,2012-12-12 23:54:00
6:54 PM,34.0,19.9,56,30.23,10.0,SSE,6.9,-,N/A,,Clear,150,2012-12-13 00:54:00
7:54 PM,35.1,21.0,57,30.22,10.0,SSE,8.1,-,N/A,,Clear,150,2012-12-13 01:54:00
8:54 PM,37.0,21.0,52,30.23,10.0,SSE,9.2,-,N/A,,Clear,160,2012-12-13 02:54:00
9:54 PM,35.1,21.0,57,30.24,10.0,SSE,6.9,-,N/A,,Clear,160,2012-12-13 03:54:00
10:54 PM,35.1,19.9,54,30.26,10.0,South,5.8,-,N/A,,Clear,170,2012-12-13 04:54:00
11:54 PM,37.0,19.0,48,30.25,10.0,South,8.1,-,N/A,,Clear,170,2012-12-13 05:54:00